sensor_id;sensor_type;location;lat;lon;timestamp;P1;durP1;ratioP1;P2;durP2;ratioP2
66601;SDS011;53459;51.828;7.872;2022-08-11T00:03:28;7.18;;;2.30;;
66601;SDS011;53459;51.828;7.872;2022-08-11T00:05:54;5.95;;;2.47;;
66601;SDS011;53459;51.828;7.872;2022-08-11T00:08:22;6.55;;;1.90;;
66601;SDS011;53459;51.828;7.872;2022-08-11T00:14:12;6.20;;;1.85;;
66601;SDS011;53459;51.828;7.872;2022-08-11T00:19:51;5.77;;;2.27;;
66601;SDS011;53459;51.828;7.872;2022-08-11T00:22:24;6.68;;;2.67;;
66601;SDS011;53459;51.828;7.872;2022-08-11T00:24:52;7.63;;;2.55;;
66601;SDS011;53459;51.828;7.872;2022-08-11T00:27:18;5.55;;;2.20;;
66601;SDS011;53459;51.828;7.872;2022-08-11T00:32:34;6.80;;;2.50;;
66601;SDS011;53459;51.828;7.872;2022-08-11T00:35:02;8.50;;;2.58;;
66601;SDS011;53459;51.828;7.872;2022-08-11T00:37:31;6.63;;;2.50;;
66601;SDS011;53459;51.828;7.872;2022-08-11T00:39:58;6.60;;;2.50;;
66601;SDS011;53459;51.828;7.872;2022-08-11T00:50:25;8.10;;;2.75;;
66601;SDS011;53459;51.828;7.872;2022-08-11T01:10:47;6.50;;;2.47;;
66601;SDS011;53459;51.828;7.872;2022-08-11T01:32:22;8.27;;;3.20;;
66601;SDS011;53459;51.828;7.872;2022-08-11T01:43:45;7.72;;;3.30;;
66601;SDS011;53459;51.828;7.872;2022-08-11T01:47:01;8.63;;;3.53;;
66601;SDS011;53459;51.828;7.872;2022-08-11T01:49:24;7.05;;;3.42;;
66601;SDS011;53459;51.828;7.872;2022-08-11T01:54:40;8.70;;;3.35;;
66601;SDS011;53459;51.828;7.872;2022-08-11T02:04:06;7.30;;;3.38;;
66601;SDS011;53459;51.828;7.872;2022-08-11T02:06:41;7.05;;;3.55;;
66601;SDS011;53459;51.828;7.872;2022-08-11T02:09:22;7.35;;;3.40;;
66601;SDS011;53459;51.828;7.872;2022-08-11T02:12:47;7.82;;;3.47;;
66601;SDS011;53459;51.828;7.872;2022-08-11T02:18:10;6.90;;;3.28;;
66601;SDS011;53459;51.828;7.872;2022-08-11T02:21:06;8.38;;;3.50;;
66601;SDS011;53459;51.828;7.872;2022-08-11T02:23:58;8.93;;;3.50;;
66601;SDS011;53459;51.828;7.872;2022-08-11T02:26:32;8.90;;;3.50;;
66601;SDS011;53459;51.828;7.872;2022-08-11T02:39:12;7.93;;;3.80;;
66601;SDS011;53459;51.828;7.872;2022-08-11T02:46:30;8.50;;;4.10;;
66601;SDS011;53459;51.828;7.872;2022-08-11T02:49:47;7.60;;;3.95;;
66601;SDS011;53459;51.828;7.872;2022-08-11T03:04:44;9.02;;;4.38;;
66601;SDS011;53459;51.828;7.872;2022-08-11T03:14:02;10.35;;;4.38;;
66601;SDS011;53459;51.828;7.872;2022-08-11T03:17:28;8.10;;;4.25;;
66601;SDS011;53459;51.828;7.872;2022-08-11T03:24:20;8.30;;;4.20;;
66601;SDS011;53459;51.828;7.872;2022-08-11T03:34:57;8.85;;;4.75;;
66601;SDS011;53459;51.828;7.872;2022-08-11T03:43:06;9.82;;;4.82;;
66601;SDS011;53459;51.828;7.872;2022-08-11T03:48:39;10.95;;;5.95;;
66601;SDS011;53459;51.828;7.872;2022-08-11T03:51:21;9.90;;;5.33;;
66601;SDS011;53459;51.828;7.872;2022-08-11T03:53:59;11.80;;;4.97;;
66601;SDS011;53459;51.828;7.872;2022-08-11T04:02:18;9.38;;;4.68;;
66601;SDS011;53459;51.828;7.872;2022-08-11T04:05:05;10.82;;;5.43;;
66601;SDS011;53459;51.828;7.872;2022-08-11T04:10:56;10.55;;;5.20;;
66601;SDS011;53459;51.828;7.872;2022-08-11T04:13:44;8.35;;;4.78;;
66601;SDS011;53459;51.828;7.872;2022-08-11T04:34:52;9.65;;;4.40;;
66601;SDS011;53459;51.828;7.872;2022-08-11T04:37:42;9.57;;;4.47;;
66601;SDS011;53459;51.828;7.872;2022-08-11T04:53:41;9.70;;;4.95;;
66601;SDS011;53459;51.828;7.872;2022-08-11T04:56:42;11.05;;;5.00;;
66601;SDS011;53459;51.828;7.872;2022-08-11T05:11:45;9.33;;;4.77;;
66601;SDS011;53459;51.828;7.872;2022-08-11T05:17:08;9.32;;;4.60;;
66601;SDS011;53459;51.828;7.872;2022-08-11T05:21:31;11.55;;;4.40;;
66601;SDS011;53459;51.828;7.872;2022-08-11T05:24:36;8.27;;;4.07;;
66601;SDS011;53459;51.828;7.872;2022-08-11T05:27:29;10.70;;;4.30;;
66601;SDS011;53459;51.828;7.872;2022-08-11T05:31:11;8.73;;;4.07;;
66601;SDS011;53459;51.828;7.872;2022-08-11T05:37:06;7.80;;;3.53;;
66601;SDS011;53459;51.828;7.872;2022-08-11T05:40:08;6.20;;;3.03;;
66601;SDS011;53459;51.828;7.872;2022-08-11T05:42:55;7.82;;;2.80;;
66601;SDS011;53459;51.828;7.872;2022-08-11T05:45:44;8.45;;;2.78;;
66601;SDS011;53459;51.828;7.872;2022-08-11T05:49:36;8.65;;;2.97;;
66601;SDS011;53459;51.828;7.872;2022-08-11T05:52:21;7.93;;;2.42;;
66601;SDS011;53459;51.828;7.872;2022-08-11T05:55:08;7.40;;;2.90;;
66601;SDS011;53459;51.828;7.872;2022-08-11T05:58:04;6.18;;;2.50;;
66601;SDS011;53459;51.828;7.872;2022-08-11T06:00:44;5.93;;;2.63;;
66601;SDS011;53459;51.828;7.872;2022-08-11T06:03:11;6.78;;;2.72;;
66601;SDS011;53459;51.828;7.872;2022-08-11T06:05:49;6.00;;;2.55;;
66601;SDS011;53459;51.828;7.872;2022-08-11T06:08:15;6.70;;;2.42;;
66601;SDS011;53459;51.828;7.872;2022-08-11T06:10:51;5.68;;;2.38;;
66601;SDS011;53459;51.828;7.872;2022-08-11T06:15:05;7.18;;;2.10;;
66601;SDS011;53459;51.828;7.872;2022-08-11T06:20:04;7.60;;;2.30;;
66601;SDS011;53459;51.828;7.872;2022-08-11T06:22:33;7.07;;;2.17;;
66601;SDS011;53459;51.828;7.872;2022-08-11T06:25:00;5.93;;;1.97;;
66601;SDS011;53459;51.828;7.872;2022-08-11T06:27:29;6.90;;;2.30;;
66601;SDS011;53459;51.828;7.872;2022-08-11T06:29:56;5.65;;;2.05;;
66601;SDS011;53459;51.828;7.872;2022-08-11T06:32:24;7.78;;;2.30;;
66601;SDS011;53459;51.828;7.872;2022-08-11T06:38:24;5.55;;;1.95;;
66601;SDS011;53459;51.828;7.872;2022-08-11T06:41:09;6.88;;;1.80;;
66601;SDS011;53459;51.828;7.872;2022-08-11T06:44:02;5.88;;;1.52;;
66601;SDS011;53459;51.828;7.872;2022-08-11T06:48:27;5.88;;;1.90;;
66601;SDS011;53459;51.828;7.872;2022-08-11T06:50:58;5.22;;;1.77;;
66601;SDS011;53459;51.828;7.872;2022-08-11T06:53:53;6.22;;;2.38;;
66601;SDS011;53459;51.828;7.872;2022-08-11T06:56:44;6.38;;;1.73;;
66601;SDS011;53459;51.828;7.872;2022-08-11T06:59:38;5.22;;;1.60;;
66601;SDS011;53459;51.828;7.872;2022-08-11T07:02:27;5.90;;;1.65;;
66601;SDS011;53459;51.828;7.872;2022-08-11T07:13:00;7.57;;;1.50;;
66601;SDS011;53459;51.828;7.872;2022-08-11T07:15:44;4.82;;;1.70;;
66601;SDS011;53459;51.828;7.872;2022-08-11T07:18:19;7.05;;;1.70;;
66601;SDS011;53459;51.828;7.872;2022-08-11T07:22:58;5.30;;;1.80;;
66601;SDS011;53459;51.828;7.872;2022-08-11T07:25:46;5.80;;;1.70;;
66601;SDS011;53459;51.828;7.872;2022-08-11T07:28:35;6.13;;;1.75;;
66601;SDS011;53459;51.828;7.872;2022-08-11T07:34:08;5.35;;;1.80;;
66601;SDS011;53459;51.828;7.872;2022-08-11T07:36:49;5.10;;;1.77;;
66601;SDS011;53459;51.828;7.872;2022-08-11T07:41:51;5.25;;;1.83;;
66601;SDS011;53459;51.828;7.872;2022-08-11T07:44:21;6.38;;;1.80;;
66601;SDS011;53459;51.828;7.872;2022-08-11T07:47:01;6.93;;;1.88;;
66601;SDS011;53459;51.828;7.872;2022-08-11T07:49:46;4.97;;;1.67;;
66601;SDS011;53459;51.828;7.872;2022-08-11T07:52:33;6.80;;;1.80;;
66601;SDS011;53459;51.828;7.872;2022-08-11T07:55:04;5.30;;;1.70;;
66601;SDS011;53459;51.828;7.872;2022-08-11T07:57:32;6.10;;;1.87;;
66601;SDS011;53459;51.828;7.872;2022-08-11T08:02:04;6.10;;;1.70;;
66601;SDS011;53459;51.828;7.872;2022-08-11T08:04:49;5.63;;;2.10;;
66601;SDS011;53459;51.828;7.872;2022-08-11T08:07:34;5.20;;;1.80;;
66601;SDS011;53459;51.828;7.872;2022-08-11T08:10:20;5.35;;;1.75;;
66601;SDS011;53459;51.828;7.872;2022-08-11T08:13:05;4.63;;;1.67;;
66601;SDS011;53459;51.828;7.872;2022-08-11T08:15:50;5.43;;;1.70;;
66601;SDS011;53459;51.828;7.872;2022-08-11T08:19:56;4.80;;;1.83;;
66601;SDS011;53459;51.828;7.872;2022-08-11T08:22:21;7.30;;;2.10;;
66601;SDS011;53459;51.828;7.872;2022-08-11T08:24:48;5.60;;;1.70;;
66601;SDS011;53459;51.828;7.872;2022-08-11T08:28:32;5.63;;;1.80;;
66601;SDS011;53459;51.828;7.872;2022-08-11T08:30:58;6.80;;;2.00;;
66601;SDS011;53459;51.828;7.872;2022-08-11T08:33:28;6.18;;;2.00;;
66601;SDS011;53459;51.828;7.872;2022-08-11T08:36:03;7.03;;;2.07;;
66601;SDS011;53459;51.828;7.872;2022-08-11T08:38:54;6.25;;;2.20;;
66601;SDS011;53459;51.828;7.872;2022-08-11T08:41:21;5.30;;;2.00;;
66601;SDS011;53459;51.828;7.872;2022-08-11T08:43:52;5.68;;;2.28;;
66601;SDS011;53459;51.828;7.872;2022-08-11T08:48:16;5.72;;;2.03;;
66601;SDS011;53459;51.828;7.872;2022-08-11T08:50:49;5.88;;;2.30;;
66601;SDS011;53459;51.828;7.872;2022-08-11T08:53:44;6.57;;;2.40;;
66601;SDS011;53459;51.828;7.872;2022-08-11T08:56:13;6.47;;;2.20;;
66601;SDS011;53459;51.828;7.872;2022-08-11T08:58:39;6.32;;;2.42;;
66601;SDS011;53459;51.828;7.872;2022-08-11T09:01:06;7.50;;;2.20;;
66601;SDS011;53459;51.828;7.872;2022-08-11T09:03:35;6.38;;;2.58;;
66601;SDS011;53459;51.828;7.872;2022-08-11T09:06:02;5.40;;;2.60;;
66601;SDS011;53459;51.828;7.872;2022-08-11T09:08:36;6.53;;;2.60;;
66601;SDS011;53459;51.828;7.872;2022-08-11T09:11:04;5.70;;;2.40;;
66601;SDS011;53459;51.828;7.872;2022-08-11T09:13:37;5.35;;;2.50;;
66601;SDS011;53459;51.828;7.872;2022-08-11T09:16:16;7.47;;;2.55;;
66601;SDS011;53459;51.828;7.872;2022-08-11T09:18:43;6.10;;;2.50;;
66601;SDS011;53459;51.828;7.872;2022-08-11T09:21:10;6.07;;;2.53;;
66601;SDS011;53459;51.828;7.872;2022-08-11T09:23:51;6.53;;;2.83;;
66601;SDS011;53459;51.828;7.872;2022-08-11T09:26:35;6.57;;;2.60;;
66601;SDS011;53459;51.828;7.872;2022-08-11T09:29:21;5.25;;;2.60;;
66601;SDS011;53459;51.828;7.872;2022-08-11T09:31:47;6.30;;;2.80;;
66601;SDS011;53459;51.828;7.872;2022-08-11T09:34:13;8.60;;;2.60;;
66601;SDS011;53459;51.828;7.872;2022-08-11T09:36:40;7.32;;;3.13;;
66601;SDS011;53459;51.828;7.872;2022-08-11T09:39:30;5.38;;;2.60;;
66601;SDS011;53459;51.828;7.872;2022-08-11T09:42:15;5.80;;;2.78;;
66601;SDS011;53459;51.828;7.872;2022-08-11T09:44:44;7.10;;;2.75;;
66601;SDS011;53459;51.828;7.872;2022-08-11T09:47:27;5.43;;;2.67;;
66601;SDS011;53459;51.828;7.872;2022-08-11T09:52:05;9.90;;;2.78;;
66601;SDS011;53459;51.828;7.872;2022-08-11T09:54:33;8.10;;;2.57;;
66601;SDS011;53459;51.828;7.872;2022-08-11T09:56:59;6.40;;;2.60;;
66601;SDS011;53459;51.828;7.872;2022-08-11T10:01:10;5.82;;;2.53;;
66601;SDS011;53459;51.828;7.872;2022-08-11T10:03:52;13.30;;;2.80;;
66601;SDS011;53459;51.828;7.872;2022-08-11T10:07:17;5.70;;;2.40;;
66601;SDS011;53459;51.828;7.872;2022-08-11T10:10:15;5.78;;;2.63;;
66601;SDS011;53459;51.828;7.872;2022-08-11T10:12:51;6.23;;;2.37;;
66601;SDS011;53459;51.828;7.872;2022-08-11T10:15:22;6.20;;;2.50;;
66601;SDS011;53459;51.828;7.872;2022-08-11T10:18:06;6.97;;;2.60;;
66601;SDS011;53459;51.828;7.872;2022-08-11T10:24:00;8.30;;;2.65;;
66601;SDS011;53459;51.828;7.872;2022-08-11T10:27:35;7.53;;;2.50;;
66601;SDS011;53459;51.828;7.872;2022-08-11T10:33:20;6.75;;;2.60;;
66601;SDS011;53459;51.828;7.872;2022-08-11T10:36:05;5.60;;;2.40;;
66601;SDS011;53459;51.828;7.872;2022-08-11T10:38:32;5.83;;;2.17;;
66601;SDS011;53459;51.828;7.872;2022-08-11T10:40:58;5.82;;;2.50;;
66601;SDS011;53459;51.828;7.872;2022-08-11T10:43:44;7.93;;;2.67;;
66601;SDS011;53459;51.828;7.872;2022-08-11T10:47:06;6.20;;;2.50;;
66601;SDS011;53459;51.828;7.872;2022-08-11T10:50:19;5.40;;;2.70;;
66601;SDS011;53459;51.828;7.872;2022-08-11T10:53:03;6.25;;;2.60;;
66601;SDS011;53459;51.828;7.872;2022-08-11T10:55:50;6.82;;;2.50;;
66601;SDS011;53459;51.828;7.872;2022-08-11T10:59:11;5.47;;;2.47;;
66601;SDS011;53459;51.828;7.872;2022-08-11T11:02:22;5.47;;;2.65;;
66601;SDS011;53459;51.828;7.872;2022-08-11T11:04:55;8.00;;;2.60;;
66601;SDS011;53459;51.828;7.872;2022-08-11T11:07:28;5.93;;;2.40;;
66601;SDS011;53459;51.828;7.872;2022-08-11T11:10:03;6.05;;;2.53;;
66601;SDS011;53459;51.828;7.872;2022-08-11T11:12:35;7.68;;;2.70;;
66601;SDS011;53459;51.828;7.872;2022-08-11T11:15:22;6.57;;;2.80;;
66601;SDS011;53459;51.828;7.872;2022-08-11T11:19:29;6.80;;;3.00;;
66601;SDS011;53459;51.828;7.872;2022-08-11T11:21:55;5.47;;;2.50;;
66601;SDS011;53459;51.828;7.872;2022-08-11T11:24:52;5.93;;;2.50;;
66601;SDS011;53459;51.828;7.872;2022-08-11T11:27:56;6.18;;;2.50;;
66601;SDS011;53459;51.828;7.872;2022-08-11T11:30:36;6.47;;;2.72;;
66601;SDS011;53459;51.828;7.872;2022-08-11T11:33:17;6.28;;;2.70;;
66601;SDS011;53459;51.828;7.872;2022-08-11T11:38:21;5.57;;;2.50;;
66601;SDS011;53459;51.828;7.872;2022-08-11T11:43:59;5.38;;;2.50;;
66601;SDS011;53459;51.828;7.872;2022-08-11T11:46:26;5.38;;;2.20;;
66601;SDS011;53459;51.828;7.872;2022-08-11T11:48:53;5.68;;;2.42;;
66601;SDS011;53459;51.828;7.872;2022-08-11T11:54:13;7.10;;;2.63;;
66601;SDS011;53459;51.828;7.872;2022-08-11T11:56:39;6.00;;;2.30;;
66601;SDS011;53459;51.828;7.872;2022-08-11T11:59:06;9.32;;;2.88;;
66601;SDS011;53459;51.828;7.872;2022-08-11T12:01:52;6.90;;;2.42;;
66601;SDS011;53459;51.828;7.872;2022-08-11T12:04:20;6.53;;;2.80;;
66601;SDS011;53459;51.828;7.872;2022-08-11T12:06:47;5.63;;;2.50;;
66601;SDS011;53459;51.828;7.872;2022-08-11T12:09:14;6.97;;;2.50;;
66601;SDS011;53459;51.828;7.872;2022-08-11T12:11:42;5.82;;;2.35;;
66601;SDS011;53459;51.828;7.872;2022-08-11T12:14:27;6.60;;;2.50;;
66601;SDS011;53459;51.828;7.872;2022-08-11T12:17:10;6.60;;;2.70;;
66601;SDS011;53459;51.828;7.872;2022-08-11T12:19:36;5.47;;;2.60;;
66601;SDS011;53459;51.828;7.872;2022-08-11T12:22:01;7.10;;;2.60;;
66601;SDS011;53459;51.828;7.872;2022-08-11T12:24:46;12.98;;;2.67;;
66601;SDS011;53459;51.828;7.872;2022-08-11T12:29:07;5.95;;;2.90;;
66601;SDS011;53459;51.828;7.872;2022-08-11T12:31:36;8.68;;;2.83;;
66601;SDS011;53459;51.828;7.872;2022-08-11T12:34:35;5.90;;;2.50;;
66601;SDS011;53459;51.828;7.872;2022-08-11T12:37:01;5.07;;;2.60;;
66601;SDS011;53459;51.828;7.872;2022-08-11T12:39:33;6.05;;;2.80;;
66601;SDS011;53459;51.828;7.872;2022-08-11T12:42:20;6.25;;;2.70;;
66601;SDS011;53459;51.828;7.872;2022-08-11T12:45:09;6.43;;;2.97;;
66601;SDS011;53459;51.828;7.872;2022-08-11T12:47:53;8.32;;;2.97;;
66601;SDS011;53459;51.828;7.872;2022-08-11T12:50:45;7.55;;;2.70;;
66601;SDS011;53459;51.828;7.872;2022-08-11T12:53:33;4.80;;;2.40;;
66601;SDS011;53459;51.828;7.872;2022-08-11T12:56:03;4.57;;;2.50;;
66601;SDS011;53459;51.828;7.872;2022-08-11T12:58:50;5.70;;;2.40;;
66601;SDS011;53459;51.828;7.872;2022-08-11T13:01:17;7.28;;;2.70;;
66601;SDS011;53459;51.828;7.872;2022-08-11T13:04:15;5.78;;;2.78;;
66601;SDS011;53459;51.828;7.872;2022-08-11T13:07:00;7.37;;;2.57;;
66601;SDS011;53459;51.828;7.872;2022-08-11T13:09:27;4.68;;;2.40;;
66601;SDS011;53459;51.828;7.872;2022-08-11T13:11:55;7.50;;;2.80;;
66601;SDS011;53459;51.828;7.872;2022-08-11T13:14:39;6.60;;;2.60;;
66601;SDS011;53459;51.828;7.872;2022-08-11T13:17:04;5.30;;;2.50;;
66601;SDS011;53459;51.828;7.872;2022-08-11T13:19:47;6.32;;;2.40;;
66601;SDS011;53459;51.828;7.872;2022-08-11T13:22:17;7.85;;;2.60;;
66601;SDS011;53459;51.828;7.872;2022-08-11T13:24:44;5.80;;;2.65;;
66601;SDS011;53459;51.828;7.872;2022-08-11T13:27:12;6.55;;;2.90;;
66601;SDS011;53459;51.828;7.872;2022-08-11T13:29:41;5.47;;;2.75;;
66601;SDS011;53459;51.828;7.872;2022-08-11T13:32:10;4.88;;;2.20;;
66601;SDS011;53459;51.828;7.872;2022-08-11T13:34:37;6.90;;;2.60;;
66601;SDS011;53459;51.828;7.872;2022-08-11T13:37:06;6.68;;;2.72;;
66601;SDS011;53459;51.828;7.872;2022-08-11T13:39:34;6.40;;;2.75;;
66601;SDS011;53459;51.828;7.872;2022-08-11T13:42:01;6.47;;;2.60;;
66601;SDS011;53459;51.828;7.872;2022-08-11T13:44:55;5.25;;;2.65;;
66601;SDS011;53459;51.828;7.872;2022-08-11T13:47:22;5.97;;;2.60;;
66601;SDS011;53459;51.828;7.872;2022-08-11T13:49:49;5.90;;;3.05;;
66601;SDS011;53459;51.828;7.872;2022-08-11T13:52:15;6.18;;;2.80;;
66601;SDS011;53459;51.828;7.872;2022-08-11T13:54:43;6.03;;;3.13;;
66601;SDS011;53459;51.828;7.872;2022-08-11T13:57:12;5.00;;;2.58;;
66601;SDS011;53459;51.828;7.872;2022-08-11T13:59:40;7.00;;;2.60;;
66601;SDS011;53459;51.828;7.872;2022-08-11T14:02:15;6.82;;;2.90;;
66601;SDS011;53459;51.828;7.872;2022-08-11T14:04:44;7.00;;;2.92;;
66601;SDS011;53459;51.828;7.872;2022-08-11T14:10:48;6.78;;;2.75;;
66601;SDS011;53459;51.828;7.872;2022-08-11T14:13:41;5.23;;;2.87;;
66601;SDS011;53459;51.828;7.872;2022-08-11T14:16:31;7.05;;;3.00;;
66601;SDS011;53459;51.828;7.872;2022-08-11T14:18:59;8.32;;;3.10;;
66601;SDS011;53459;51.828;7.872;2022-08-11T14:22:20;6.07;;;2.95;;
66601;SDS011;53459;51.828;7.872;2022-08-11T14:24:46;5.72;;;2.88;;
66601;SDS011;53459;51.828;7.872;2022-08-11T14:27:14;4.70;;;3.00;;
66601;SDS011;53459;51.828;7.872;2022-08-11T14:31:17;5.53;;;2.95;;
66601;SDS011;53459;51.828;7.872;2022-08-11T14:33:43;6.93;;;3.20;;
66601;SDS011;53459;51.828;7.872;2022-08-11T14:36:10;6.53;;;2.80;;
66601;SDS011;53459;51.828;7.872;2022-08-11T14:38:36;5.78;;;2.70;;
66601;SDS011;53459;51.828;7.872;2022-08-11T14:41:04;5.63;;;2.85;;
66601;SDS011;53459;51.828;7.872;2022-08-11T14:43:50;7.85;;;3.10;;
66601;SDS011;53459;51.828;7.872;2022-08-11T14:46:36;6.47;;;2.90;;
66601;SDS011;53459;51.828;7.872;2022-08-11T14:51:41;6.53;;;2.60;;
66601;SDS011;53459;51.828;7.872;2022-08-11T14:54:08;6.45;;;2.78;;
66601;SDS011;53459;51.828;7.872;2022-08-11T14:56:53;5.38;;;2.70;;
66601;SDS011;53459;51.828;7.872;2022-08-11T14:59:20;6.93;;;2.80;;
66601;SDS011;53459;51.828;7.872;2022-08-11T15:05:51;7.88;;;3.05;;
66601;SDS011;53459;51.828;7.872;2022-08-11T15:08:18;5.80;;;2.67;;
66601;SDS011;53459;51.828;7.872;2022-08-11T15:10:45;6.68;;;2.53;;
66601;SDS011;53459;51.828;7.872;2022-08-11T15:13:15;8.38;;;2.80;;
66601;SDS011;53459;51.828;7.872;2022-08-11T15:15:45;6.25;;;2.85;;
66601;SDS011;53459;51.828;7.872;2022-08-11T15:18:31;6.10;;;2.70;;
66601;SDS011;53459;51.828;7.872;2022-08-11T15:20:57;5.68;;;2.70;;
66601;SDS011;53459;51.828;7.872;2022-08-11T15:23:41;6.35;;;2.80;;
66601;SDS011;53459;51.828;7.872;2022-08-11T15:26:31;6.65;;;2.78;;
66601;SDS011;53459;51.828;7.872;2022-08-11T15:29:31;7.10;;;3.00;;
66601;SDS011;53459;51.828;7.872;2022-08-11T15:32:20;5.05;;;2.75;;
66601;SDS011;53459;51.828;7.872;2022-08-11T15:35:22;7.80;;;3.00;;
66601;SDS011;53459;51.828;7.872;2022-08-11T15:38:06;4.57;;;2.53;;
66601;SDS011;53459;51.828;7.872;2022-08-11T15:40:37;5.90;;;2.80;;
66601;SDS011;53459;51.828;7.872;2022-08-11T15:43:28;8.38;;;2.85;;
66601;SDS011;53459;51.828;7.872;2022-08-11T15:46:17;5.50;;;2.60;;
66601;SDS011;53459;51.828;7.872;2022-08-11T15:48:50;5.70;;;2.80;;
66601;SDS011;53459;51.828;7.872;2022-08-11T15:54:09;6.43;;;2.42;;
66601;SDS011;53459;51.828;7.872;2022-08-11T15:56:39;6.10;;;2.40;;
66601;SDS011;53459;51.828;7.872;2022-08-11T15:59:07;6.20;;;2.60;;
66601;SDS011;53459;51.828;7.872;2022-08-11T16:01:54;5.97;;;2.80;;
66601;SDS011;53459;51.828;7.872;2022-08-11T16:04:40;6.38;;;2.50;;
66601;SDS011;53459;51.828;7.872;2022-08-11T16:08:43;6.43;;;2.72;;
66601;SDS011;53459;51.828;7.872;2022-08-11T16:11:10;6.77;;;2.53;;
66601;SDS011;53459;51.828;7.872;2022-08-11T16:13:36;5.97;;;2.60;;
66601;SDS011;53459;51.828;7.872;2022-08-11T16:16:06;5.00;;;2.50;;
66601;SDS011;53459;51.828;7.872;2022-08-11T16:18:50;5.27;;;2.60;;
66601;SDS011;53459;51.828;7.872;2022-08-11T16:21:29;7.05;;;2.65;;
66601;SDS011;53459;51.828;7.872;2022-08-11T16:23:58;6.00;;;2.70;;
66601;SDS011;53459;51.828;7.872;2022-08-11T16:26:25;5.50;;;2.20;;
66601;SDS011;53459;51.828;7.872;2022-08-11T16:28:54;5.03;;;2.50;;
66601;SDS011;53459;51.828;7.872;2022-08-11T16:31:24;5.95;;;2.60;;
66601;SDS011;53459;51.828;7.872;2022-08-11T16:33:52;5.57;;;2.53;;
66601;SDS011;53459;51.828;7.872;2022-08-11T16:36:20;5.50;;;2.67;;
66601;SDS011;53459;51.828;7.872;2022-08-11T16:39:06;6.43;;;2.80;;
66601;SDS011;53459;51.828;7.872;2022-08-11T16:41:35;5.80;;;2.40;;
66601;SDS011;53459;51.828;7.872;2022-08-11T16:45:22;6.63;;;2.75;;
66601;SDS011;53459;51.828;7.872;2022-08-11T16:48:38;5.18;;;2.40;;
66601;SDS011;53459;51.828;7.872;2022-08-11T16:51:07;5.93;;;2.58;;
66601;SDS011;53459;51.828;7.872;2022-08-11T16:53:35;11.32;;;3.05;;
66601;SDS011;53459;51.828;7.872;2022-08-11T16:56:02;8.37;;;2.60;;
66601;SDS011;53459;51.828;7.872;2022-08-11T16:59:39;5.90;;;2.30;;
66601;SDS011;53459;51.828;7.872;2022-08-11T17:02:10;5.15;;;2.42;;
66601;SDS011;53459;51.828;7.872;2022-08-11T17:05:10;6.05;;;2.42;;
66601;SDS011;53459;51.828;7.872;2022-08-11T17:07:58;7.75;;;2.58;;
66601;SDS011;53459;51.828;7.872;2022-08-11T17:10:49;5.43;;;2.40;;
66601;SDS011;53459;51.828;7.872;2022-08-11T17:13:41;5.47;;;2.40;;
66601;SDS011;53459;51.828;7.872;2022-08-11T17:17:35;6.32;;;2.50;;
66601;SDS011;53459;51.828;7.872;2022-08-11T17:20:03;4.82;;;2.60;;
66601;SDS011;53459;51.828;7.872;2022-08-11T17:22:33;5.07;;;2.20;;
66601;SDS011;53459;51.828;7.872;2022-08-11T17:28:27;5.57;;;2.40;;
66601;SDS011;53459;51.828;7.872;2022-08-11T17:30:54;4.85;;;2.30;;
66601;SDS011;53459;51.828;7.872;2022-08-11T17:33:39;6.28;;;2.40;;
66601;SDS011;53459;51.828;7.872;2022-08-11T17:40:41;7.60;;;2.22;;
66601;SDS011;53459;51.828;7.872;2022-08-11T17:43:30;4.85;;;2.10;;
66601;SDS011;53459;51.828;7.872;2022-08-11T17:46:16;5.70;;;2.08;;
66601;SDS011;53459;51.828;7.872;2022-08-11T17:49:00;6.10;;;2.13;;
66601;SDS011;53459;51.828;7.872;2022-08-11T17:51:27;6.72;;;2.30;;
66601;SDS011;53459;51.828;7.872;2022-08-11T17:54:13;7.13;;;2.10;;
66601;SDS011;53459;51.828;7.872;2022-08-11T17:56:58;7.00;;;2.30;;
66601;SDS011;53459;51.828;7.872;2022-08-11T18:00:17;7.70;;;2.30;;
66601;SDS011;53459;51.828;7.872;2022-08-11T18:02:43;5.47;;;2.22;;
66601;SDS011;53459;51.828;7.872;2022-08-11T18:05:46;4.82;;;2.17;;
66601;SDS011;53459;51.828;7.872;2022-08-11T18:08:13;6.10;;;2.30;;
66601;SDS011;53459;51.828;7.872;2022-08-11T18:11:00;5.57;;;2.03;;
66601;SDS011;53459;51.828;7.872;2022-08-11T18:14:37;5.60;;;2.45;;
66601;SDS011;53459;51.828;7.872;2022-08-11T18:17:24;5.22;;;2.22;;
66601;SDS011;53459;51.828;7.872;2022-08-11T18:20:09;5.78;;;2.20;;
66601;SDS011;53459;51.828;7.872;2022-08-11T18:22:53;5.20;;;2.30;;
66601;SDS011;53459;51.828;7.872;2022-08-11T18:25:39;5.63;;;2.20;;
66601;SDS011;53459;51.828;7.872;2022-08-11T18:28:28;6.43;;;2.40;;
66601;SDS011;53459;51.828;7.872;2022-08-11T18:31:16;6.20;;;2.10;;
66601;SDS011;53459;51.828;7.872;2022-08-11T18:34:03;6.05;;;2.10;;
66601;SDS011;53459;51.828;7.872;2022-08-11T18:37:05;5.95;;;2.10;;
66601;SDS011;53459;51.828;7.872;2022-08-11T18:39:55;6.03;;;2.10;;
66601;SDS011;53459;51.828;7.872;2022-08-11T18:42:43;5.30;;;2.20;;
66601;SDS011;53459;51.828;7.872;2022-08-11T18:49:25;5.22;;;2.30;;
66601;SDS011;53459;51.828;7.872;2022-08-11T18:52:12;4.75;;;2.00;;
66601;SDS011;53459;51.828;7.872;2022-08-11T18:54:59;5.40;;;2.45;;
66601;SDS011;53459;51.828;7.872;2022-08-11T18:57:45;6.47;;;2.60;;
66601;SDS011;53459;51.828;7.872;2022-08-11T19:00:31;5.00;;;2.10;;
66601;SDS011;53459;51.828;7.872;2022-08-11T19:03:18;7.05;;;2.20;;
66601;SDS011;53459;51.828;7.872;2022-08-11T19:06:04;5.00;;;2.10;;
66601;SDS011;53459;51.828;7.872;2022-08-11T19:09:18;5.07;;;2.20;;
66601;SDS011;53459;51.828;7.872;2022-08-11T19:12:03;5.23;;;2.30;;
66601;SDS011;53459;51.828;7.872;2022-08-11T19:14:50;6.50;;;2.03;;
66601;SDS011;53459;51.828;7.872;2022-08-11T19:18:09;5.10;;;1.90;;
66601;SDS011;53459;51.828;7.872;2022-08-11T19:20:57;5.47;;;2.20;;
66601;SDS011;53459;51.828;7.872;2022-08-11T19:23:43;6.43;;;2.03;;
66601;SDS011;53459;51.828;7.872;2022-08-11T19:28:08;6.65;;;2.30;;
66601;SDS011;53459;51.828;7.872;2022-08-11T19:30:52;5.88;;;2.10;;
66601;SDS011;53459;51.828;7.872;2022-08-11T19:33:38;6.47;;;2.20;;
66601;SDS011;53459;51.828;7.872;2022-08-11T19:36:23;7.28;;;2.10;;
66601;SDS011;53459;51.828;7.872;2022-08-11T19:39:09;4.90;;;2.10;;
66601;SDS011;53459;51.828;7.872;2022-08-11T19:44:18;6.53;;;2.35;;
66601;SDS011;53459;51.828;7.872;2022-08-11T19:47:11;6.80;;;2.10;;
66601;SDS011;53459;51.828;7.872;2022-08-11T19:49:56;5.90;;;2.30;;
66601;SDS011;53459;51.828;7.872;2022-08-11T19:52:42;5.78;;;2.10;;
66601;SDS011;53459;51.828;7.872;2022-08-11T19:55:27;6.50;;;2.10;;
66601;SDS011;53459;51.828;7.872;2022-08-11T19:58:12;7.45;;;2.17;;
66601;SDS011;53459;51.828;7.872;2022-08-11T20:00:58;6.10;;;2.20;;
66601;SDS011;53459;51.828;7.872;2022-08-11T20:03:43;6.57;;;1.92;;
66601;SDS011;53459;51.828;7.872;2022-08-11T20:06:28;5.55;;;2.08;;
66601;SDS011;53459;51.828;7.872;2022-08-11T20:09:13;6.65;;;2.05;;
66601;SDS011;53459;51.828;7.872;2022-08-11T20:12:03;5.00;;;2.00;;
66601;SDS011;53459;51.828;7.872;2022-08-11T20:14:48;6.78;;;2.08;;
66601;SDS011;53459;51.828;7.872;2022-08-11T20:17:37;5.27;;;2.10;;
66601;SDS011;53459;51.828;7.872;2022-08-11T20:20:24;6.63;;;1.90;;
66601;SDS011;53459;51.828;7.872;2022-08-11T20:23:03;5.55;;;2.00;;
66601;SDS011;53459;51.828;7.872;2022-08-11T20:25:51;7.07;;;2.10;;
66601;SDS011;53459;51.828;7.872;2022-08-11T20:28:36;5.67;;;2.10;;
66601;SDS011;53459;51.828;7.872;2022-08-11T20:31:25;6.53;;;1.95;;
66601;SDS011;53459;51.828;7.872;2022-08-11T20:34:09;5.68;;;2.15;;
66601;SDS011;53459;51.828;7.872;2022-08-11T20:36:54;6.30;;;2.00;;
66601;SDS011;53459;51.828;7.872;2022-08-11T20:39:40;5.53;;;1.90;;
66601;SDS011;53459;51.828;7.872;2022-08-11T20:42:26;4.60;;;1.80;;
66601;SDS011;53459;51.828;7.872;2022-08-11T20:45:12;5.30;;;2.00;;
66601;SDS011;53459;51.828;7.872;2022-08-11T20:47:57;5.68;;;2.10;;